sensor_id;sensor_type;location;lat;lon;timestamp;pressure;altitude;pressure_sealevel;temperature;humidity
75418;BME280;63997;52.112;5.420;2023-04-25T00:01:56;101190.03;;;5.58;86.19
75418;BME280;63997;52.112;5.420;2023-04-25T00:04:22;101194.00;;;5.55;86.11
75418;BME280;63997;52.112;5.420;2023-04-25T00:06:49;101191.44;;;5.50;86.08
75418;BME280;63997;52.112;5.420;2023-04-25T00:09:16;101196.75;;;5.45;86.16
75418;BME280;63997;52.112;5.420;2023-04-25T00:11:42;101204.13;;;5.43;86.32
75418;BME280;63997;52.112;5.420;2023-04-25T00:14:09;101204.69;;;5.40;86.49
75418;BME280;63997;52.112;5.420;2023-04-25T00:16:36;101212.31;;;5.42;86.63
75418;BME280;63997;52.112;5.420;2023-04-25T00:19:02;101204.66;;;5.45;86.81
75418;BME280;63997;52.112;5.420;2023-04-25T00:21:30;101211.22;;;5.48;87.29
75418;BME280;63997;52.112;5.420;2023-04-25T00:23:57;101216.75;;;5.51;87.46
75418;BME280;63997;52.112;5.420;2023-04-25T00:26:24;101214.84;;;5.57;87.49
75418;BME280;63997;52.112;5.420;2023-04-25T00:28:51;101210.88;;;5.60;87.55
75418;BME280;63997;52.112;5.420;2023-04-25T00:31:17;101218.78;;;5.60;87.55
75418;BME280;63997;52.112;5.420;2023-04-25T00:33:44;101214.53;;;5.64;87.50
75418;BME280;63997;52.112;5.420;2023-04-25T00:36:10;101215.03;;;5.66;87.73
75418;BME280;63997;52.112;5.420;2023-04-25T00:38:38;101208.16;;;5.70;87.72
75418;BME280;63997;52.112;5.420;2023-04-25T00:41:07;101218.16;;;5.73;87.50
75418;BME280;63997;52.112;5.420;2023-04-25T00:43:36;101216.31;;;5.73;87.36
75418;BME280;63997;52.112;5.420;2023-04-25T00:46:03;101222.09;;;5.75;87.33
75418;BME280;63997;52.112;5.420;2023-04-25T00:48:29;101222.34;;;5.79;87.36
75418;BME280;63997;52.112;5.420;2023-04-25T00:50:59;101218.63;;;5.80;87.46
75418;BME280;63997;52.112;5.420;2023-04-25T00:53:27;101218.91;;;5.78;87.45
75418;BME280;63997;52.112;5.420;2023-04-25T00:55:54;101217.84;;;5.79;87.30
75418;BME280;63997;52.112;5.420;2023-04-25T00:58:21;101220.47;;;5.79;87.25
75418;BME280;63997;52.112;5.420;2023-04-25T01:00:49;101214.91;;;5.81;87.34
75418;BME280;63997;52.112;5.420;2023-04-25T01:03:16;101214.91;;;5.81;87.17
75418;BME280;63997;52.112;5.420;2023-04-25T01:05:43;101215.47;;;5.78;86.90
75418;BME280;63997;52.112;5.420;2023-04-25T01:08:10;101211.25;;;5.77;86.94
75418;BME280;63997;52.112;5.420;2023-04-25T01:10:36;101209.69;;;5.76;86.87
75418;BME280;63997;52.112;5.420;2023-04-25T01:13:03;101212.88;;;5.73;86.77
75418;BME280;63997;52.112;5.420;2023-04-25T01:15:30;101219.50;;;5.70;86.86
75418;BME280;63997;52.112;5.420;2023-04-25T01:17:57;101220.84;;;5.68;86.64
75418;BME280;63997;52.112;5.420;2023-04-25T01:20:24;101220.88;;;5.63;86.78
75418;BME280;63997;52.112;5.420;2023-04-25T01:22:52;101219.84;;;5.58;86.93
75418;BME280;63997;52.112;5.420;2023-04-25T01:25:19;101230.44;;;5.53;86.65
75418;BME280;63997;52.112;5.420;2023-04-25T01:27:46;101234.13;;;5.52;86.61
75418;BME280;63997;52.112;5.420;2023-04-25T01:30:13;101233.66;;;5.45;86.33
75418;BME280;63997;52.112;5.420;2023-04-25T01:32:40;101238.97;;;5.40;86.11
75418;BME280;63997;52.112;5.420;2023-04-25T01:35:09;101235.84;;;5.33;85.71
75418;BME280;63997;52.112;5.420;2023-04-25T01:37:40;101235.38;;;5.26;85.41
75418;BME280;63997;52.112;5.420;2023-04-25T01:40:08;101247.00;;;5.20;85.45
75418;BME280;63997;52.112;5.420;2023-04-25T01:42:37;101248.09;;;5.14;85.49
75418;BME280;63997;52.112;5.420;2023-04-25T01:45:04;101247.84;;;5.10;85.54
75418;BME280;63997;52.112;5.420;2023-04-25T01:47:32;101247.06;;;5.04;85.47
75418;BME280;63997;52.112;5.420;2023-04-25T01:50:03;101252.41;;;4.99;85.49
75418;BME280;63997;52.112;5.420;2023-04-25T01:52:31;101257.13;;;4.97;85.52
75418;BME280;63997;52.112;5.420;2023-04-25T01:54:59;101256.91;;;4.94;85.74
75418;BME280;63997;52.112;5.420;2023-04-25T01:57:27;101257.16;;;4.92;85.81
75418;BME280;63997;52.112;5.420;2023-04-25T01:59:59;101266.91;;;4.92;85.88
75418;BME280;63997;52.112;5.420;2023-04-25T02:02:26;101260.59;;;4.88;85.75
75418;BME280;63997;52.112;5.420;2023-04-25T02:04:52;101261.16;;;4.80;85.40
75418;BME280;63997;52.112;5.420;2023-04-25T02:07:20;101262.75;;;4.75;85.44
75418;BME280;63997;52.112;5.420;2023-04-25T02:09:47;101266.72;;;4.73;85.84
75418;BME280;63997;52.112;5.420;2023-04-25T02:12:13;101271.47;;;4.71;86.02
75418;BME280;63997;52.112;5.420;2023-04-25T02:14:39;101266.75;;;4.68;85.78
75418;BME280;63997;52.112;5.420;2023-04-25T02:17:06;101262.00;;;4.65;85.82
75418;BME280;63997;52.112;5.420;2023-04-25T02:19:33;101273.09;;;4.62;85.70
75418;BME280;63997;52.112;5.420;2023-04-25T02:21:59;101272.03;;;4.58;85.86
75418;BME280;63997;52.112;5.420;2023-04-25T02:24:26;101270.97;;;4.54;85.70
75418;BME280;63997;52.112;5.420;2023-04-25T02:26:54;101272.59;;;4.44;85.53
75418;BME280;63997;52.112;5.420;2023-04-25T02:29:21;101271.28;;;4.37;85.36
75418;BME280;63997;52.112;5.420;2023-04-25T02:31:48;101273.91;;;4.32;85.48
75418;BME280;63997;52.112;5.420;2023-04-25T02:34:14;101273.69;;;4.28;85.78
75418;BME280;63997;52.112;5.420;2023-04-25T02:36:41;101267.88;;;4.26;85.72
75418;BME280;63997;52.112;5.420;2023-04-25T02:39:07;101267.63;;;4.28;85.89
75418;BME280;63997;52.112;5.420;2023-04-25T02:41:34;101267.34;;;4.29;86.02
75418;BME280;63997;52.112;5.420;2023-04-25T02:44:00;101274.75;;;4.27;86.08
75418;BME280;63997;52.112;5.420;2023-04-25T02:46:27;101277.63;;;4.25;86.30
75418;BME280;63997;52.112;5.420;2023-04-25T02:49:05;101277.38;;;4.27;86.29
75418;BME280;63997;52.112;5.420;2023-04-25T02:51:31;101266.84;;;4.27;86.21
75418;BME280;63997;52.112;5.420;2023-04-25T02:53:58;101272.13;;;4.27;86.73
75418;BME280;63997;52.112;5.420;2023-04-25T02:56:25;101275.25;;;4.29;86.60
75418;BME280;63997;52.112;5.420;2023-04-25T02:58:53;101275.25;;;4.29;86.83
75418;BME280;63997;52.112;5.420;2023-04-25T03:01:19;101274.19;;;4.30;86.80
75418;BME280;63997;52.112;5.420;2023-04-25T03:03:46;101280.00;;;4.32;86.61
75418;BME280;63997;52.112;5.420;2023-04-25T03:06:13;101279.47;;;4.35;86.71
75418;BME280;63997;52.112;5.420;2023-04-25T03:08:41;101278.41;;;4.36;86.90
75418;BME280;63997;52.112;5.420;2023-04-25T03:11:07;101276.81;;;4.35;86.81
75418;BME280;63997;52.112;5.420;2023-04-25T03:13:33;101277.63;;;4.36;87.16
75418;BME280;63997;52.112;5.420;2023-04-25T03:16:00;101278.41;;;4.36;87.02
75418;BME280;63997;52.112;5.420;2023-04-25T03:18:27;101284.72;;;4.35;87.06
75418;BME280;63997;52.112;5.420;2023-04-25T03:20:53;101286.84;;;4.33;87.23
75418;BME280;63997;52.112;5.420;2023-04-25T03:23:20;101290.53;;;4.32;87.16
75418;BME280;63997;52.112;5.420;2023-04-25T03:25:46;101293.69;;;4.29;87.02
75418;BME280;63997;52.112;5.420;2023-04-25T03:28:13;101295.03;;;4.27;86.94
75418;BME280;63997;52.112;5.420;2023-04-25T03:30:39;101297.91;;;4.25;87.13
75418;BME280;63997;52.112;5.420;2023-04-25T03:33:05;101298.97;;;4.24;86.98
75418;BME280;63997;52.112;5.420;2023-04-25T03:35:32;101298.97;;;4.24;87.19
75418;BME280;63997;52.112;5.420;2023-04-25T03:37:58;101296.03;;;4.25;87.08
75418;BME280;63997;52.112;5.420;2023-04-25T03:40:25;101303.69;;;4.27;87.41
75418;BME280;63997;52.112;5.420;2023-04-25T03:42:52;101300.53;;;4.30;87.45
75418;BME280;63997;52.112;5.420;2023-04-25T03:45:18;101295.25;;;4.35;87.90
75418;BME280;63997;52.112;5.420;2023-04-25T03:47:44;101306.84;;;4.39;87.35
75418;BME280;63997;52.112;5.420;2023-04-25T03:50:11;101310.53;;;4.38;87.52
75418;BME280;63997;52.112;5.420;2023-04-25T03:52:38;101313.69;;;4.40;87.60
75418;BME280;63997;52.112;5.420;2023-04-25T03:55:04;101319.22;;;4.44;87.62
75418;BME280;63997;52.112;5.420;2023-04-25T03:57:31;101314.97;;;4.48;87.62
75418;BME280;63997;52.112;5.420;2023-04-25T03:59:57;101316.81;;;4.53;87.60
75418;BME280;63997;52.112;5.420;2023-04-25T04:02:24;101310.25;;;4.55;87.85
75418;BME280;63997;52.112;5.420;2023-04-25T04:04:50;101313.13;;;4.59;87.74
75418;BME280;63997;52.112;5.420;2023-04-25T04:07:17;101313.66;;;4.61;87.65
75418;BME280;63997;52.112;5.420;2023-04-25T04:09:43;101319.94;;;4.65;87.56
75418;BME280;63997;52.112;5.420;2023-04-25T04:12:10;101328.63;;;4.65;87.64
75418;BME280;63997;52.112;5.420;2023-04-25T04:14:36;101321.78;;;4.69;87.61
75418;BME280;63997;52.112;5.420;2023-04-25T04:17:03;101326.00;;;4.70;87.51
75418;BME280;63997;52.112;5.420;2023-04-25T04:19:29;101329.97;;;4.73;87.34
75418;BME280;63997;52.112;5.420;2023-04-25T04:21:55;101328.09;;;4.73;87.17
75418;BME280;63997;52.112;5.420;2023-04-25T04:24:22;101325.75;;;4.72;86.98
75418;BME280;63997;52.112;5.420;2023-04-25T04:26:48;101335.75;;;4.75;85.99
75418;BME280;63997;52.112;5.420;2023-04-25T04:29:16;101330.19;;;4.82;85.95
75418;BME280;63997;52.112;5.420;2023-04-25T04:31:48;101327.81;;;4.85;85.79
75418;BME280;63997;52.112;5.420;2023-04-25T04:34:16;101328.31;;;4.87;86.02
75418;BME280;63997;52.112;5.420;2023-04-25T04:36:44;101338.63;;;4.84;86.34
75418;BME280;63997;52.112;5.420;2023-04-25T04:39:13;101341.00;;;4.85;86.20
75418;BME280;63997;52.112;5.420;2023-04-25T04:41:39;101341.50;;;4.87;86.02
75418;BME280;63997;52.112;5.420;2023-04-25T04:44:06;101345.97;;;4.92;85.68
75418;BME280;63997;52.112;5.420;2023-04-25T04:46:34;101346.75;;;4.92;85.95
75418;BME280;63997;52.112;5.420;2023-04-25T04:49:13;101354.41;;;4.94;85.72
75418;BME280;63997;52.112;5.420;2023-04-25T04:51:42;101353.88;;;4.97;85.72
75418;BME280;63997;52.112;5.420;2023-04-25T04:54:10;101353.34;;;5.00;85.64
75418;BME280;63997;52.112;5.420;2023-04-25T04:56:37;101355.16;;;5.04;85.88
75418;BME280;63997;52.112;5.420;2023-04-25T04:59:03;101353.06;;;5.07;85.66
75418;BME280;63997;52.112;5.420;2023-04-25T05:01:30;101372.00;;;5.09;85.90
75418;BME280;63997;52.112;5.420;2023-04-25T05:03:57;101372.56;;;5.11;86.29
75418;BME280;63997;52.112;5.420;2023-04-25T05:06:27;101372.00;;;5.14;86.25
75418;BME280;63997;52.112;5.420;2023-04-25T05:08:56;101379.38;;;5.17;86.55
75418;BME280;63997;52.112;5.420;2023-04-25T05:11:23;101376.19;;;5.20;86.49
75418;BME280;63997;52.112;5.420;2023-04-25T05:13:51;101382.78;;;5.22;86.86
75418;BME280;63997;52.112;5.420;2023-04-25T05:16:19;101385.66;;;5.26;86.64
75418;BME280;63997;52.112;5.420;2023-04-25T05:18:46;101390.41;;;5.29;86.78
75418;BME280;63997;52.112;5.420;2023-04-25T05:21:13;101391.19;;;5.29;86.77
75418;BME280;63997;52.112;5.420;2023-04-25T05:23:40;101390.13;;;5.30;86.45
75418;BME280;63997;52.112;5.420;2023-04-25T05:26:06;101399.88;;;5.35;86.58
75418;BME280;63997;52.112;5.420;2023-04-25T05:28:40;101399.59;;;5.37;86.65
75418;BME280;63997;52.112;5.420;2023-04-25T05:31:09;101404.34;;;5.40;86.35
75418;BME280;63997;52.112;5.420;2023-04-25T05:33:36;101400.38;;;5.42;86.13
75418;BME280;63997;52.112;5.420;2023-04-25T05:36:03;101400.34;;;5.47;85.63
75418;BME280;63997;52.112;5.420;2023-04-25T05:38:29;101406.69;;;5.51;85.56
75418;BME280;63997;52.112;5.420;2023-04-25T05:40:59;101410.88;;;5.57;85.65
75418;BME280;63997;52.112;5.420;2023-04-25T05:43:26;101410.31;;;5.61;85.53
75418;BME280;63997;52.112;5.420;2023-04-25T05:45:52;101405.53;;;5.68;85.31
75418;BME280;63997;52.112;5.420;2023-04-25T05:48:19;101403.13;;;5.76;85.07
75418;BME280;63997;52.112;5.420;2023-04-25T05:50:45;101407.56;;;5.86;85.40
75418;BME280;63997;52.112;5.420;2023-04-25T05:53:12;101414.41;;;5.92;85.65
75418;BME280;63997;52.112;5.420;2023-04-25T05:55:38;101417.53;;;5.99;85.52
75418;BME280;63997;52.112;5.420;2023-04-25T05:58:05;101426.75;;;6.02;85.63
75418;BME280;63997;52.112;5.420;2023-04-25T06:00:32;101427.00;;;6.05;85.45
75418;BME280;63997;52.112;5.420;2023-04-25T06:02:59;101430.38;;;6.11;85.51
75418;BME280;63997;52.112;5.420;2023-04-25T06:05:25;101430.63;;;6.15;85.38
75418;BME280;63997;52.112;5.420;2023-04-25T06:07:53;101434.78;;;6.26;85.37
75418;BME280;63997;52.112;5.420;2023-04-25T06:10:20;101437.66;;;6.34;85.36
75418;BME280;63997;52.112;5.420;2023-04-25T06:12:47;101443.13;;;6.43;85.05
75418;BME280;63997;52.112;5.420;2023-04-25T06:15:13;101448.38;;;6.48;84.17
75418;BME280;63997;52.112;5.420;2023-04-25T06:17:53;101441.69;;;6.56;83.81
75418;BME280;63997;52.112;5.420;2023-04-25T06:20:20;101452.47;;;6.65;83.04
75418;BME280;63997;52.112;5.420;2023-04-25T06:22:50;101449.22;;;6.73;81.92
75418;BME280;63997;52.112;5.420;2023-04-25T06:25:16;101440.75;;;6.76;79.02
75418;BME280;63997;52.112;5.420;2023-04-25T06:27:43;101450.75;;;6.79;79.60
75418;BME280;63997;52.112;5.420;2023-04-25T06:30:10;101451.22;;;6.86;79.09
75418;BME280;63997;52.112;5.420;2023-04-25T06:32:38;101448.00;;;6.89;79.14
75418;BME280;63997;52.112;5.420;2023-04-25T06:35:05;101453.28;;;7.18;79.19
75418;BME280;63997;52.112;5.420;2023-04-25T06:37:33;101444.41;;;7.76;78.41
75418;BME280;63997;52.112;5.420;2023-04-25T06:39:59;101461.53;;;9.05;76.10
75418;BME280;63997;52.112;5.420;2023-04-25T06:42:26;101444.19;;;9.90;70.12
75418;BME280;63997;52.112;5.420;2023-04-25T06:44:52;101446.72;;;9.45;70.87
75418;BME280;63997;52.112;5.420;2023-04-25T06:47:18;101463.19;;;9.01;70.55
75418;BME280;63997;52.112;5.420;2023-04-25T06:49:45;101452.91;;;8.67;71.88
75418;BME280;63997;52.112;5.420;2023-04-25T06:52:11;101465.91;;;8.50;71.62
75418;BME280;63997;52.112;5.420;2023-04-25T06:54:38;101467.69;;;8.16;72.41
75418;BME280;63997;52.112;5.420;2023-04-25T06:57:04;101473.91;;;8.07;73.04
75418;BME280;63997;52.112;5.420;2023-04-25T06:59:33;101470.78;;;8.05;73.24
75418;BME280;63997;52.112;5.420;2023-04-25T07:01:59;101478.38;;;8.11;72.14
75418;BME280;63997;52.112;5.420;2023-04-25T07:04:26;101476.78;;;8.10;72.37
75418;BME280;63997;52.112;5.420;2023-04-25T07:06:52;101473.84;;;8.12;71.47
75418;BME280;63997;52.112;5.420;2023-04-25T07:09:23;101473.72;;;8.03;72.35
75418;BME280;63997;52.112;5.420;2023-04-25T07:11:49;101479.56;;;8.00;72.61
75418;BME280;63997;52.112;5.420;2023-04-25T07:14:16;101489.94;;;7.96;72.35
75418;BME280;63997;52.112;5.420;2023-04-25T07:16:42;101483.72;;;8.06;73.94
75418;BME280;63997;52.112;5.420;2023-04-25T07:19:11;101492.69;;;8.10;72.00
75418;BME280;63997;52.112;5.420;2023-04-25T07:21:37;101492.97;;;8.09;71.40
75418;BME280;63997;52.112;5.420;2023-04-25T07:24:04;101499.34;;;8.27;71.95
75418;BME280;63997;52.112;5.420;2023-04-25T07:26:31;101495.34;;;9.13;69.82
75418;BME280;63997;52.112;5.420;2023-04-25T07:28:57;101503.22;;;9.87;69.16
75418;BME280;63997;52.112;5.420;2023-04-25T07:31:23;101499.25;;;10.12;68.22
75418;BME280;63997;52.112;5.420;2023-04-25T07:33:50;101507.31;;;10.07;64.32
75418;BME280;63997;52.112;5.420;2023-04-25T07:36:17;101511.78;;;9.84;64.80
75418;BME280;63997;52.112;5.420;2023-04-25T07:38:43;101513.66;;;9.42;64.87
75418;BME280;63997;52.112;5.420;2023-04-25T07:41:10;101503.03;;;9.28;65.87
75418;BME280;63997;52.112;5.420;2023-04-25T07:43:36;101505.31;;;9.49;67.32
75418;BME280;63997;52.112;5.420;2023-04-25T07:46:03;101520.06;;;9.69;68.31
75418;BME280;63997;52.112;5.420;2023-04-25T07:48:29;101517.13;;;9.43;65.88
75418;BME280;63997;52.112;5.420;2023-04-25T07:50:55;101520.53;;;9.30;64.81
75418;BME280;63997;52.112;5.420;2023-04-25T07:53:22;101527.88;;;9.19;65.00
75418;BME280;63997;52.112;5.420;2023-04-25T07:55:48;101527.41;;;9.31;62.87
75418;BME280;63997;52.112;5.420;2023-04-25T07:58:15;101533.16;;;9.05;62.62
75418;BME280;63997;52.112;5.420;2023-04-25T08:00:41;101530.75;;;8.90;64.87
75418;BME280;63997;52.112;5.420;2023-04-25T08:03:09;101535.38;;;8.84;64.44
75418;BME280;63997;52.112;5.420;2023-04-25T08:05:36;101536.00;;;8.95;65.91
75418;BME280;63997;52.112;5.420;2023-04-25T08:08:03;101536.63;;;9.19;62.49
75418;BME280;63997;52.112;5.420;2023-04-25T08:10:32;101548.47;;;9.41;61.88
75418;BME280;63997;52.112;5.420;2023-04-25T08:12:59;101551.38;;;9.25;62.82
75418;BME280;63997;52.112;5.420;2023-04-25T08:15:26;101545.63;;;9.51;62.13
75418;BME280;63997;52.112;5.420;2023-04-25T08:17:53;101552.31;;;9.62;60.95
75418;BME280;63997;52.112;5.420;2023-04-25T08:20:20;101550.66;;;9.66;62.69
75418;BME280;63997;52.112;5.420;2023-04-25T08:22:46;101554.28;;;9.70;62.87
75418;BME280;63997;52.112;5.420;2023-04-25T08:25:14;101562.25;;;9.70;61.77
75418;BME280;63997;52.112;5.420;2023-04-25T08:27:43;101574.84;;;9.37;61.08
75418;BME280;63997;52.112;5.420;2023-04-25T08:30:09;101587.78;;;8.73;61.17
75418;BME280;63997;52.112;5.420;2023-04-25T08:32:36;101584.16;;;8.27;63.98
75418;BME280;63997;52.112;5.420;2023-04-25T08:35:05;101595.16;;;8.15;65.71
75418;BME280;63997;52.112;5.420;2023-04-25T08:37:31;101591.13;;;7.99;65.14
75418;BME280;63997;52.112;5.420;2023-04-25T08:39:58;101598.81;;;7.95;66.05
75418;BME280;63997;52.112;5.420;2023-04-25T08:42:26;101598.03;;;7.94;64.08
75418;BME280;63997;52.112;5.420;2023-04-25T08:44:53;101597.69;;;8.01;65.17
75418;BME280;63997;52.112;5.420;2023-04-25T08:47:21;101592.34;;;8.06;63.38
75418;BME280;63997;52.112;5.420;2023-04-25T08:49:49;101599.63;;;8.19;66.42
75418;BME280;63997;52.112;5.420;2023-04-25T08:52:21;101600.84;;;8.27;63.29
75418;BME280;63997;52.112;5.420;2023-04-25T08:54:49;101608.50;;;8.29;62.59
75418;BME280;63997;52.112;5.420;2023-04-25T08:57:16;101617.84;;;8.45;62.97
75418;BME280;63997;52.112;5.420;2023-04-25T08:59:44;101616.75;;;8.70;64.31
75418;BME280;63997;52.112;5.420;2023-04-25T09:02:12;101615.91;;;9.07;63.37
75418;BME280;63997;52.112;5.420;2023-04-25T09:04:44;101622.78;;;9.41;63.34
75418;BME280;63997;52.112;5.420;2023-04-25T09:07:11;101618.19;;;9.46;60.53
75418;BME280;63997;52.112;5.420;2023-04-25T09:09:37;101626.19;;;9.60;61.99
75418;BME280;63997;52.112;5.420;2023-04-25T09:12:05;101631.13;;;9.80;61.42
75418;BME280;63997;52.112;5.420;2023-04-25T09:14:31;101629.94;;;9.73;60.68
75418;BME280;63997;52.112;5.420;2023-04-25T09:16:59;101625.72;;;9.72;60.44
75418;BME280;63997;52.112;5.420;2023-04-25T09:19:32;101631.53;;;10.01;60.27
75418;BME280;63997;52.112;5.420;2023-04-25T09:22:03;101634.59;;;10.22;58.39
75418;BME280;63997;52.112;5.420;2023-04-25T09:24:41;101632.53;;;10.47;59.82
75418;BME280;63997;52.112;5.420;2023-04-25T09:27:10;101633.59;;;10.32;57.93
75418;BME280;63997;52.112;5.420;2023-04-25T09:29:39;101634.53;;;10.27;59.38
75418;BME280;63997;52.112;5.420;2023-04-25T09:34:48;101649.44;;;9.96;59.00
75418;BME280;63997;52.112;5.420;2023-04-25T09:37:35;101644.72;;;9.93;58.31
75418;BME280;63997;52.112;5.420;2023-04-25T09:40:05;101653.38;;;9.85;58.18
75418;BME280;63997;52.112;5.420;2023-04-25T09:42:33;101657.69;;;9.80;57.06
75418;BME280;63997;52.112;5.420;2023-04-25T09:45:02;101652.19;;;9.77;59.06
75418;BME280;63997;52.112;5.420;2023-04-25T09:47:29;101665.56;;;9.72;60.17
75418;BME280;63997;52.112;5.420;2023-04-25T09:49:56;101681.44;;;9.58;61.00
75418;BME280;63997;52.112;5.420;2023-04-25T09:52:24;101679.22;;;9.33;62.70
75418;BME280;63997;52.112;5.420;2023-04-25T09:54:52;101682.59;;;9.19;63.35
75418;BME280;63997;52.112;5.420;2023-04-25T09:57:21;101698.22;;;9.02;63.08
75418;BME280;63997;52.112;5.420;2023-04-25T09:59:50;101698.81;;;8.99;62.71
75418;BME280;63997;52.112;5.420;2023-04-25T10:02:21;101700.88;;;9.02;64.29
75418;BME280;63997;52.112;5.420;2023-04-25T10:04:49;101702.41;;;8.89;62.34
75418;BME280;63997;52.112;5.420;2023-04-25T10:07:18;101707.69;;;8.89;62.74
75418;BME280;63997;52.112;5.420;2023-04-25T10:09:48;101703.78;;;8.87;62.27
75418;BME280;63997;52.112;5.420;2023-04-25T10:12:16;101706.00;;;8.98;62.57
75418;BME280;63997;52.112;5.420;2023-04-25T10:14:44;101705.91;;;9.22;63.26
75418;BME280;63997;52.112;5.420;2023-04-25T10:17:11;101697.34;;;9.44;60.89
75418;BME280;63997;52.112;5.420;2023-04-25T10:19:37;101712.94;;;9.65;62.62
75418;BME280;63997;52.112;5.420;2023-04-25T10:22:11;101700.97;;;9.67;59.79
75418;BME280;63997;52.112;5.420;2023-04-25T10:24:39;101692.50;;;9.65;56.22
75418;BME280;63997;52.112;5.420;2023-04-25T10:27:06;101691.66;;;9.84;57.97
75418;BME280;63997;52.112;5.420;2023-04-25T10:29:33;101693.56;;;10.11;57.78
75418;BME280;63997;52.112;5.420;2023-04-25T10:32:02;101692.41;;;10.30;57.79
75418;BME280;63997;52.112;5.420;2023-04-25T10:34:42;101694.38;;;10.52;57.66
75418;BME280;63997;52.112;5.420;2023-04-25T10:37:15;101696.81;;;10.49;54.37
75418;BME280;63997;52.112;5.420;2023-04-25T10:39:42;101689.75;;;10.44;54.75
75418;BME280;63997;52.112;5.420;2023-04-25T10:42:09;101695.06;;;10.44;52.46
75418;BME280;63997;52.112;5.420;2023-04-25T10:44:37;101695.06;;;10.30;51.87
75418;BME280;63997;52.112;5.420;2023-04-25T10:47:06;101700.88;;;10.32;52.26
75418;BME280;63997;52.112;5.420;2023-04-25T10:49:35;101696.25;;;10.38;54.97
75418;BME280;63997;52.112;5.420;2023-04-25T10:52:27;101699.75;;;10.75;55.71
75418;BME280;63997;52.112;5.420;2023-04-25T10:54:56;101686.44;;;11.11;58.21
75418;BME280;63997;52.112;5.420;2023-04-25T10:57:42;101697.94;;;11.20;54.29
75418;BME280;63997;52.112;5.420;2023-04-25T11:00:13;101696.34;;;10.97;52.77
75418;BME280;63997;52.112;5.420;2023-04-25T11:02:52;101690.78;;;10.84;50.63
75418;BME280;63997;52.112;5.420;2023-04-25T11:05:22;101697.50;;;10.68;54.27
75418;BME280;63997;52.112;5.420;2023-04-25T11:07:52;101697.59;;;10.49;53.36
75418;BME280;63997;52.112;5.420;2023-04-25T11:10:31;101704.81;;;10.35;53.01
75418;BME280;63997;52.112;5.420;2023-04-25T11:12:58;101713.03;;;10.20;55.93
75418;BME280;63997;52.112;5.420;2023-04-25T11:15:25;101720.63;;;9.99;56.95
75418;BME280;63997;52.112;5.420;2023-04-25T11:17:52;101730.56;;;9.42;59.89
75418;BME280;63997;52.112;5.420;2023-04-25T11:20:19;101727.41;;;9.02;61.75
75418;BME280;63997;52.112;5.420;2023-04-25T11:22:46;101735.19;;;9.17;63.52
75418;BME280;63997;52.112;5.420;2023-04-25T11:25:14;101742.97;;;9.46;64.53
75418;BME280;63997;52.112;5.420;2023-04-25T11:27:54;101737.75;;;9.60;62.69
75418;BME280;63997;52.112;5.420;2023-04-25T11:30:23;101746.56;;;9.37;63.37
75418;BME280;63997;52.112;5.420;2023-04-25T11:32:51;101741.84;;;9.34;64.12
75418;BME280;63997;52.112;5.420;2023-04-25T11:35:19;101745.22;;;9.20;63.62
75418;BME280;63997;52.112;5.420;2023-04-25T11:37:47;101747.38;;;9.18;64.15
75418;BME280;63997;52.112;5.420;2023-04-25T11:40:13;101743.69;;;9.14;63.68
75418;BME280;63997;52.112;5.420;2023-04-25T11:42:45;101749.44;;;9.02;62.67
75418;BME280;63997;52.112;5.420;2023-04-25T11:45:13;101756.91;;;9.00;63.68
75418;BME280;63997;52.112;5.420;2023-04-25T11:47:40;101753.53;;;8.95;61.37
75418;BME280;63997;52.112;5.420;2023-04-25T11:50:07;101757.97;;;8.99;62.88
75418;BME280;63997;52.112;5.420;2023-04-25T11:52:42;101754.41;;;9.28;63.34
75418;BME280;63997;52.112;5.420;2023-04-25T11:55:18;101757.91;;;9.42;61.46
75418;BME280;63997;52.112;5.420;2023-04-25T11:57:48;101752.22;;;9.68;59.24
75418;BME280;63997;52.112;5.420;2023-04-25T12:00:20;101750.00;;;9.56;57.82
75418;BME280;63997;52.112;5.420;2023-04-25T12:02:51;101751.44;;;10.00;58.90
75418;BME280;63997;52.112;5.420;2023-04-25T12:05:19;101736.22;;;10.47;57.30
75418;BME280;63997;52.112;5.420;2023-04-25T12:08:09;101747.13;;;10.86;56.82
75418;BME280;63997;52.112;5.420;2023-04-25T12:10:41;101745.78;;;10.75;53.74
75418;BME280;63997;52.112;5.420;2023-04-25T12:13:21;101742.81;;;10.77;57.12
75418;BME280;63997;52.112;5.420;2023-04-25T12:15:48;101749.91;;;10.54;56.32
75418;BME280;63997;52.112;5.420;2023-04-25T12:18:19;101757.97;;;10.21;54.52
75418;BME280;63997;52.112;5.420;2023-04-25T12:20:46;101758.53;;;10.04;57.48
75418;BME280;63997;52.112;5.420;2023-04-25T12:23:12;101767.78;;;10.07;55.80
75418;BME280;63997;52.112;5.420;2023-04-25T12:25:43;101762.66;;;10.11;56.75
75418;BME280;63997;52.112;5.420;2023-04-25T12:28:20;101766.50;;;10.18;55.74
75418;BME280;63997;52.112;5.420;2023-04-25T12:31:03;101777.69;;;10.34;57.66
75418;BME280;63997;52.112;5.420;2023-04-25T12:33:33;101768.50;;;10.26;54.69
75418;BME280;63997;52.112;5.420;2023-04-25T12:36:01;101772.31;;;10.20;55.00
75418;BME280;63997;52.112;5.420;2023-04-25T12:38:52;101780.75;;;10.27;55.61
75418;BME280;63997;52.112;5.420;2023-04-25T12:41:19;101780.66;;;10.46;58.02
75418;BME280;63997;52.112;5.420;2023-04-25T12:43:45;101777.13;;;10.51;55.14
75418;BME280;63997;52.112;5.420;2023-04-25T12:46:11;101769.03;;;10.42;55.41
75418;BME280;63997;52.112;5.420;2023-04-25T12:48:38;101765.88;;;10.54;55.33
75418;BME280;63997;52.112;5.420;2023-04-25T12:51:04;101770.31;;;10.58;53.28
75418;BME280;63997;52.112;5.420;2023-04-25T12:53:31;101777.13;;;10.51;54.56
75418;BME280;63997;52.112;5.420;2023-04-25T12:56:00;101783.00;;;10.48;54.52
75418;BME280;63997;52.112;5.420;2023-04-25T12:58:27;101767.53;;;10.91;54.71
75418;BME280;63997;52.112;5.420;2023-04-25T13:00:53;101756.88;;;11.41;51.87
75418;BME280;63997;52.112;5.420;2023-04-25T13:03:20;101753.41;;;11.63;49.68
75418;BME280;63997;52.112;5.420;2023-04-25T13:05:48;101742.09;;;11.80;50.78